Time;durP1;ratioP1;P1;durP2;ratioP2;P2;SDS_P1;SDS_P2;PMS_P1;PMS_P2;Temp;Humidity;BMP_temperature;BMP_pressure;BME280_temperature;BME280_humidity;BME280_pressure;Samples;Min_cycle;Max_cycle;Signal;HPM_P1;HPM_P2
2023/09/10 00:01:03;;;;;;;;;;;23.90;69.80;;;;;;5071886;28;20352;-67
2023/09/10 00:03:29;;;;;;;;;;;23.90;69.80;;;;;;5072583;28;19971;-67
2023/09/10 00:05:55;;;;;;;;;;;23.90;69.80;;;;;;5071510;28;19971;-66
2023/09/10 00:08:20;;;;;;;;;;;23.90;69.80;;;;;;5071663;28;19920;-67
2023/09/10 00:10:46;;;;;;;;;;;23.90;69.80;;;;;;5071464;28;20387;-66
2023/09/10 00:13:11;;;;;;;;;;;23.90;69.80;;;;;;5071390;28;19920;-67
2023/09/10 00:15:37;;;;;;;;;;;23.80;69.80;;;;;;5071671;28;19965;-67
2023/09/10 00:18:03;;;;;;;;;;;23.80;69.80;;;;;;5071629;28;20394;-67
2023/09/10 00:20:28;;;;;;;;;;;23.80;69.80;;;;;;5071637;28;19920;-67
2023/09/10 00:22:55;;;;;;;;;;;23.80;69.70;;;;;;5071074;28;20018;-66
2023/09/10 00:25:20;;;;;;;;;;;23.80;69.80;;;;;;5071741;28;19920;-68
2023/09/10 00:27:46;;;;;;;;;;;23.80;69.80;;;;;;5071150;28;20429;-67
2023/09/10 00:30:11;;;;;;;;;;;23.80;69.70;;;;;;5071660;28;19935;-67
2023/09/10 00:32:37;;;;;;;;;;;23.90;69.80;;;;;;5072615;28;19924;-67
2023/09/10 00:35:03;;;;;;;;;;;23.80;69.70;;;;;;5071420;28;19920;-66
2023/09/10 00:37:28;;;;;;;;;;;23.80;69.70;;;;;;5071039;28;19963;-68
2023/09/10 00:39:54;;;;;;;;;;;23.80;69.70;;;;;;5070835;28;19955;-67
2023/09/10 00:42:20;;;;;;;;;;;23.80;69.70;;;;;;5073673;28;19928;-67
2023/09/10 00:44:45;;;;;;;;;;;23.80;69.70;;;;;;5092516;28;20287;-67
2023/09/10 00:47:11;;;;;;;;;;;23.90;69.70;;;;;;5074353;28;19927;-67
2023/09/10 00:49:36;;;;;;;;;;;23.80;69.70;;;;;;5074596;28;20007;-67
2023/09/10 00:52:04;;;;;;;;;;;23.80;69.70;;;;;;5074368;28;20019;-67
2023/09/10 00:54:32;;;;;;;;;;;23.80;69.70;;;;;;5092291;28;20330;-67
2023/09/10 00:57:00;;;;;;;;;;;23.80;69.70;;;;;;5092569;28;19920;-67
2023/09/10 00:59:26;;;;;;;;;;;23.80;69.70;;;;;;5074221;28;20015;-67
2023/09/10 01:01:52;;;;;;;;;;;23.80;69.70;;;;;;5074507;28;19920;-67
2023/09/10 01:04:21;;;;;;;;;;;23.70;69.60;;;;;;5074091;28;20426;-66
2023/09/10 01:06:46;;;;;;;;;;;23.70;69.50;;;;;;5092276;28;19920;-67
2023/09/10 01:09:12;;;;;;;;;;;23.70;69.60;;;;;;5092089;28;20410;-67
2023/09/10 01:11:47;;;;;;;;;;;23.70;69.50;;;;;;5074395;28;19989;-67
2023/09/10 01:14:21;;;;;;;;;;;23.70;69.50;;;;;;5091048;28;19935;-67
2023/09/10 01:17:06;;;;;;;;;;;23.70;69.60;;;;;;5092128;28;19943;-67
2023/09/10 01:19:45;;;;;;;;;;;23.70;69.60;;;;;;5091793;28;19924;-67
2023/09/10 01:22:31;;;;;;;;;;;23.70;69.60;;;;;;5074009;28;20386;-66
2023/09/10 01:24:57;;;;;;;;;;;23.70;69.60;;;;;;5073687;28;19924;-67
2023/09/10 01:27:22;;;;;;;;;;;23.70;69.60;;;;;;5090724;28;20046;-67
2023/09/10 01:29:48;;;;;;;;;;;23.70;69.50;;;;;;5073909;28;20006;-67
2023/09/10 01:32:16;;;;;;;;;;;23.70;69.60;;;;;;5074365;28;19924;-66
2023/09/10 01:34:44;;;;;;;;;;;23.70;69.60;;;;;;5091933;28;19919;-67
2023/09/10 01:37:17;;;;;;;;;;;23.70;69.50;;;;;;5074074;28;20338;-67
2023/09/10 01:39:43;;;;;;;;;;;23.60;69.50;;;;;;5090613;28;19920;-67
2023/09/10 01:42:09;;;;;;;;;;;23.60;69.50;;;;;;5074029;28;20322;-67
2023/09/10 01:44:35;;;;;;;;;;;23.60;69.50;;;;;;5073668;28;20015;-67
2023/09/10 01:47:02;;;;;;;;;;;23.60;69.50;;;;;;5073575;28;20011;-67
2023/09/10 01:49:28;;;;;;;;;;;23.60;69.50;;;;;;5074034;28;20367;-67
2023/09/10 01:51:53;;;;;;;;;;;23.60;69.50;;;;;;5094840;28;19920;-67
2023/09/10 01:54:19;;;;;;;;;;;23.60;69.50;;;;;;5094272;28;19927;-67
2023/09/10 01:56:44;;;;;;;;;;;23.60;69.50;;;;;;5077517;28;19920;-66
2023/09/10 01:59:10;;;;;;;;;;;23.60;69.50;;;;;;5094416;28;19924;-67
2023/09/10 02:01:35;;;;;;;;;;;23.60;69.50;;;;;;5093983;28;19920;-66
2023/09/10 02:04:01;;;;;;;;;;;23.50;69.40;;;;;;5076452;28;19931;-67
2023/09/10 02:06:27;;;;;;;;;;;23.60;69.50;;;;;;5095082;28;19920;-68
2023/09/10 02:08:53;;;;;;;;;;;23.60;69.50;;;;;;5095300;28;19942;-67
2023/09/10 02:11:19;;;;;;;;;;;23.50;69.40;;;;;;5077442;28;19927;-67
2023/09/10 02:13:45;;;;;;;;;;;23.50;69.40;;;;;;5077027;28;19923;-67
2023/09/10 02:16:11;;;;;;;;;;;23.50;69.40;;;;;;5077170;28;20015;-67
2023/09/10 02:18:37;;;;;;;;;;;23.50;69.50;;;;;;5077241;28;20355;-67
2023/09/10 02:21:07;;;;;;;;;;;23.50;69.40;;;;;;5076818;28;19974;-67
2023/09/10 02:23:33;;;;;;;;;;;23.50;69.40;;;;;;5076914;28;19924;-66
2023/09/10 02:25:58;;;;;;;;;;;23.50;69.40;;;;;;5076997;28;19927;-66
2023/09/10 02:28:24;;;;;;;;;;;23.50;69.40;;;;;;5094845;28;19920;-69
2023/09/10 02:30:50;;;;;;;;;;;23.50;69.40;;;;;;5076896;28;19924;-67
2023/09/10 02:33:16;;;;;;;;;;;23.50;69.40;;;;;;5076505;28;19984;-67
2023/09/10 02:35:41;;;;;;;;;;;23.50;69.40;;;;;;5076910;28;19920;-67
2023/09/10 02:38:07;;;;;;;;;;;23.50;69.40;;;;;;5076404;28;20390;-67
2023/09/10 02:40:32;;;;;;;;;;;23.50;69.40;;;;;;5076823;28;19920;-67
2023/09/10 02:42:58;;;;;;;;;;;23.50;69.50;;;;;;5076114;28;20306;-67
2023/09/10 02:45:23;;;;;;;;;;;23.50;69.40;;;;;;5075606;28;20056;-67
2023/09/10 02:47:49;;;;;;;;;;;23.50;69.50;;;;;;5076071;28;19921;-67
2023/09/10 02:50:15;;;;;;;;;;;23.40;69.40;;;;;;5094640;28;19920;-66
2023/09/10 02:52:40;;;;;;;;;;;23.40;69.40;;;;;;5076508;28;20472;-67
2023/09/10 02:55:06;;;;;;;;;;;23.40;69.40;;;;;;5094324;28;20291;-66
2023/09/10 02:57:31;;;;;;;;;;;23.40;69.40;;;;;;5076438;28;19959;-67
2023/09/10 02:59:57;;;;;;;;;;;23.40;69.40;;;;;;5076186;28;20012;-66
2023/09/10 03:02:23;;;;;;;;;;;23.40;69.40;;;;;;5076162;28;19931;-67
2023/09/10 03:04:48;;;;;;;;;;;23.40;69.40;;;;;;5093945;28;19924;-67
2023/09/10 03:07:14;;;;;;;;;;;23.40;69.40;;;;;;5076287;28;20355;-67
2023/09/10 03:09:39;;;;;;;;;;;23.40;69.40;;;;;;5076122;28;20279;-67
2023/09/10 03:12:21;;;;;;;;;;;23.40;69.40;;;;;;5075886;28;19969;-66
2023/09/10 03:14:46;;;;;;;;;;;23.40;69.40;;;;;;5076028;28;19920;-66
2023/09/10 03:17:12;;;;;;;;;;;23.40;69.30;;;;;;5076020;28;19927;-67
2023/09/10 03:19:38;;;;;;;;;;;23.40;69.40;;;;;;5092511;28;20375;-67
2023/09/10 03:22:03;;;;;;;;;;;23.40;69.40;;;;;;5092734;28;19982;-67
2023/09/10 03:24:29;;;;;;;;;;;23.30;69.30;;;;;;5092418;28;19928;-67
2023/09/10 03:26:55;;;;;;;;;;;23.30;69.30;;;;;;5075436;28;19920;-67
2023/09/10 03:29:20;;;;;;;;;;;23.30;69.30;;;;;;5093370;28;20394;-67
2023/09/10 03:31:46;;;;;;;;;;;23.30;69.30;;;;;;5075802;28;19926;-66
2023/09/10 03:34:11;;;;;;;;;;;23.30;69.30;;;;;;5075589;28;19928;-66
2023/09/10 03:36:36;;;;;;;;;;;23.30;69.30;;;;;;5093734;28;19959;-67
2023/09/10 03:39:03;;;;;;;;;;;23.30;69.30;;;;;;5075598;28;19924;-66
2023/09/10 03:41:28;;;;;;;;;;;23.30;69.30;;;;;;5093479;28;19935;-66
2023/09/10 03:43:55;;;;;;;;;;;23.30;69.30;;;;;;5075052;28;20341;-66
2023/09/10 03:46:20;;;;;;;;;;;23.30;69.30;;;;;;5075058;28;19923;-66
2023/09/10 03:48:46;;;;;;;;;;;23.30;69.30;;;;;;5075035;28;19970;-67
2023/09/10 03:51:11;;;;;;;;;;;23.30;69.30;;;;;;5075029;28;20011;-67
2023/09/10 03:53:37;;;;;;;;;;;23.30;69.30;;;;;;5075102;28;19920;-67
2023/09/10 03:56:02;;;;;;;;;;;23.30;69.30;;;;;;5075262;28;19927;-66
2023/09/10 03:58:27;;;;;;;;;;;23.30;69.30;;;;;;5093121;28;19920;-66
2023/09/10 04:00:53;;;;;;;;;;;23.30;69.30;;;;;;5075231;28;20292;-67
2023/09/10 04:03:19;;;;;;;;;;;23.30;69.30;;;;;;5074652;28;19924;-67
2023/09/10 04:05:44;;;;;;;;;;;23.30;69.20;;;;;;5092004;28;19942;-66
2023/09/10 04:08:10;;;;;;;;;;;23.30;69.20;;;;;;5091944;28;19924;-67
2023/09/10 04:10:35;;;;;;;;;;;23.30;69.30;;;;;;5075255;28;20382;-66
2023/09/10 04:13:01;;;;;;;;;;;23.30;69.20;;;;;;5074592;28;19947;-66
2023/09/10 04:15:26;;;;;;;;;;;23.20;69.20;;;;;;5091650;28;19928;-67
2023/09/10 04:17:52;;;;;;;;;;;23.20;69.20;;;;;;5091807;28;19920;-67
2023/09/10 04:20:19;;;;;;;;;;;23.20;69.30;;;;;;5074625;28;20361;-67
2023/09/10 04:22:46;;;;;;;;;;;23.20;69.20;;;;;;5075009;28;19920;-66
2023/09/10 04:25:12;;;;;;;;;;;23.20;69.20;;;;;;5074562;28;19935;-66
2023/09/10 04:27:37;;;;;;;;;;;23.20;69.30;;;;;;5074725;28;19920;-66
2023/09/10 04:30:04;;;;;;;;;;;23.20;69.30;;;;;;5091698;28;19926;-66
2023/09/10 04:32:29;;;;;;;;;;;23.20;69.30;;;;;;5074432;28;19932;-67
2023/09/10 04:34:55;;;;;;;;;;;23.10;69.20;;;;;;5074708;28;19920;-66
2023/09/10 04:37:20;;;;;;;;;;;23.10;69.30;;;;;;5092613;28;20299;-67
2023/09/10 04:39:46;;;;;;;;;;;23.10;69.30;;;;;;5091525;28;20280;-67
2023/09/10 04:42:11;;;;;;;;;;;23.10;69.30;;;;;;5074111;28;19920;-66
2023/09/10 04:44:37;;;;;;;;;;;23.10;69.30;;;;;;5092465;28;19928;-67
2023/09/10 04:47:03;;;;;;;;;;;23.10;69.30;;;;;;5092353;28;19920;-67
2023/09/10 04:49:29;;;;;;;;;;;23.10;69.30;;;;;;5074494;28;19969;-67
2023/09/10 04:51:54;;;;;;;;;;;23.10;69.30;;;;;;5092319;28;20014;-67
2023/09/10 04:54:20;;;;;;;;;;;23.10;69.30;;;;;;5074617;28;19927;-66
2023/09/10 04:56:47;;;;;;;;;;;23.10;69.30;;;;;;5074536;28;20235;-67
2023/09/10 04:59:13;;;;;;;;;;;23.00;69.30;;;;;;5092273;28;20303;-66
2023/09/10 05:01:38;;;;;;;;;;;23.00;69.30;;;;;;5092287;28;19924;-66
2023/09/10 05:04:04;;;;;;;;;;;23.00;69.30;;;;;;5073973;28;19924;-66
2023/09/10 05:06:29;;;;;;;;;;;23.00;69.30;;;;;;5092190;28;19928;-67
2023/09/10 05:08:55;;;;;;;;;;;23.00;69.30;;;;;;5074011;28;20338;-67
2023/09/10 05:11:20;;;;;;;;;;;23.00;69.30;;;;;;5074532;28;19970;-67
2023/09/10 05:13:46;;;;;;;;;;;23.00;69.30;;;;;;5092197;28;19920;-67
2023/09/10 05:16:11;;;;;;;;;;;23.00;69.30;;;;;;5074376;28;19920;-67
2023/09/10 05:18:37;;;;;;;;;;;23.00;69.30;;;;;;5074252;28;20291;-67
2023/09/10 05:21:03;;;;;;;;;;;23.00;69.30;;;;;;5074176;28;19920;-67
2023/09/10 05:23:28;;;;;;;;;;;23.00;69.30;;;;;;5074137;28;20018;-67
2023/09/10 05:25:54;;;;;;;;;;;23.00;69.30;;;;;;5075643;28;20371;-66
2023/09/10 05:28:19;;;;;;;;;;;23.00;69.30;;;;;;5077794;28;19924;-67
2023/09/10 05:30:45;;;;;;;;;;;23.00;69.30;;;;;;5078032;28;19927;-67
2023/09/10 05:33:10;;;;;;;;;;;23.00;69.30;;;;;;5077865;28;19927;-66
2023/09/10 05:35:36;;;;;;;;;;;22.90;69.30;;;;;;5095885;28;20002;-66
2023/09/10 05:38:01;;;;;;;;;;;22.90;69.30;;;;;;5077569;28;19927;-66
2023/09/10 05:40:27;;;;;;;;;;;23.00;69.30;;;;;;5095798;28;19927;-67
2023/09/10 05:42:52;;;;;;;;;;;23.00;69.30;;;;;;5095617;28;19924;-66
2023/09/10 05:45:18;;;;;;;;;;;23.00;69.30;;;;;;5077764;28;19924;-67
2023/09/10 05:47:44;;;;;;;;;;;22.90;69.20;;;;;;5095739;28;19924;-66
2023/09/10 05:50:10;;;;;;;;;;;22.90;69.20;;;;;;5077672;28;19924;-67
2023/09/10 05:52:36;;;;;;;;;;;22.90;69.30;;;;;;5078048;28;19928;-66
2023/09/10 05:55:01;;;;;;;;;;;22.90;69.20;;;;;;5077406;28;20403;-67
2023/09/10 05:57:27;;;;;;;;;;;22.90;69.20;;;;;;5077598;28;19924;-67
2023/09/10 05:59:52;;;;;;;;;;;22.90;69.30;;;;;;5095496;28;20329;-66
2023/09/10 06:02:18;;;;;;;;;;;22.90;69.20;;;;;;5077179;28;19924;-67
2023/09/10 06:04:43;;;;;;;;;;;22.90;69.20;;;;;;5095221;28;19926;-66
2023/09/10 06:07:09;;;;;;;;;;;22.90;69.20;;;;;;5077442;28;19985;-66
2023/09/10 06:09:34;;;;;;;;;;;22.90;69.30;;;;;;5095094;28;20295;-66
2023/09/10 06:12:02;;;;;;;;;;;22.90;69.20;;;;;;5095396;28;20023;-67
2023/09/10 06:14:30;;;;;;;;;;;22.90;69.30;;;;;;5095209;28;19920;-67
2023/09/10 06:16:56;;;;;;;;;;;22.90;69.30;;;;;;5077255;28;19920;-67
2023/09/10 06:19:22;;;;;;;;;;;22.90;69.20;;;;;;5095001;28;19973;-67
2023/09/10 06:21:47;;;;;;;;;;;22.90;69.30;;;;;;5095009;28;19920;-66
2023/09/10 06:24:13;;;;;;;;;;;22.90;69.30;;;;;;5076640;28;19924;-66
2023/09/10 06:26:38;;;;;;;;;;;22.90;69.30;;;;;;5076954;28;19929;-66
2023/09/10 06:29:04;;;;;;;;;;;22.90;69.30;;;;;;5076711;28;19927;-66
2023/09/10 06:31:29;;;;;;;;;;;22.90;69.30;;;;;;5093858;28;20014;-67
2023/09/10 06:33:55;;;;;;;;;;;22.90;69.30;;;;;;5076607;28;20307;-66
2023/09/10 06:36:21;;;;;;;;;;;22.90;69.30;;;;;;5076516;28;19967;-67
2023/09/10 06:38:47;;;;;;;;;;;22.90;69.30;;;;;;5093395;28;19920;-67
2023/09/10 06:41:14;;;;;;;;;;;22.90;69.30;;;;;;5093601;28;19927;-67
2023/09/10 06:43:39;;;;;;;;;;;22.90;69.30;;;;;;5076329;28;20276;-66
2023/09/10 06:46:05;;;;;;;;;;;22.90;69.30;;;;;;5094577;28;19952;-67
2023/09/10 06:48:30;;;;;;;;;;;22.90;69.30;;;;;;5094511;28;19920;-66
2023/09/10 06:51:00;;;;;;;;;;;22.90;69.30;;;;;;5094480;28;19934;-66
2023/09/10 06:53:26;;;;;;;;;;;22.90;69.30;;;;;;5094333;28;19921;-67
2023/09/10 06:55:52;;;;;;;;;;;22.90;69.30;;;;;;5094365;28;19974;-67
2023/09/10 06:58:18;;;;;;;;;;;22.90;69.30;;;;;;5093317;28;19965;-66
2023/09/10 07:00:43;;;;;;;;;;;22.90;69.30;;;;;;5076079;28;19920;-67
2023/09/10 07:03:10;;;;;;;;;;;22.90;69.30;;;;;;5093029;28;19924;-67
2023/09/10 07:05:37;;;;;;;;;;;22.90;69.30;;;;;;5076352;28;19942;-66
2023/09/10 07:08:03;;;;;;;;;;;22.90;69.20;;;;;;5076164;28;19920;-66
2023/09/10 07:10:28;;;;;;;;;;;22.90;69.30;;;;;;5075847;28;20395;-67
2023/09/10 07:12:53;;;;;;;;;;;22.90;69.30;;;;;;5076127;28;19935;-67
2023/09/10 07:15:19;;;;;;;;;;;22.90;69.30;;;;;;5094135;28;19928;-67
2023/09/10 07:17:44;;;;;;;;;;;22.90;69.30;;;;;;5093898;28;20429;-67
2023/09/10 07:20:11;;;;;;;;;;;22.90;69.30;;;;;;5076182;28;19946;-66
2023/09/10 07:22:36;;;;;;;;;;;22.90;69.30;;;;;;5093770;28;19986;-67
2023/09/10 07:25:02;;;;;;;;;;;22.90;69.30;;;;;;5074740;28;20399;-66
2023/09/10 07:27:27;;;;;;;;;;;22.90;69.30;;;;;;5075479;28;19920;-67
2023/09/10 07:29:53;;;;;;;;;;;22.90;69.30;;;;;;5094042;28;19959;-66
2023/09/10 07:32:18;;;;;;;;;;;22.90;69.30;;;;;;5093986;28;20396;-67
2023/09/10 07:34:44;;;;;;;;;;;22.90;69.30;;;;;;5075715;28;19919;-67
2023/09/10 07:37:09;;;;;;;;;;;22.90;69.30;;;;;;5075333;28;19924;-67
2023/09/10 07:39:34;;;;;;;;;;;22.90;69.30;;;;;;5075519;28;19920;-67
2023/09/10 07:42:00;;;;;;;;;;;22.90;69.30;;;;;;5075490;28;19920;-66
2023/09/10 07:44:25;;;;;;;;;;;23.00;69.40;;;;;;5075091;28;19939;-67
2023/09/10 07:46:52;;;;;;;;;;;22.90;69.40;;;;;;5093475;28;19953;-66
2023/09/10 07:49:18;;;;;;;;;;;22.90;69.40;;;;;;5074411;28;19920;-67
2023/09/10 07:51:43;;;;;;;;;;;22.90;69.30;;;;;;5075112;28;19920;-67
2023/09/10 07:54:08;;;;;;;;;;;22.90;69.30;;;;;;5093183;28;20012;-67
2023/09/10 07:56:35;;;;;;;;;;;22.90;69.30;;;;;;5075313;28;19934;-67
2023/09/10 07:59:01;;;;;;;;;;;23.00;69.40;;;;;;5075188;28;19920;-67
2023/09/10 08:01:26;;;;;;;;;;;22.90;69.30;;;;;;5074926;28;20394;-67
2023/09/10 08:03:51;;;;;;;;;;;23.00;69.30;;;;;;5092975;28;19990;-67
2023/09/10 08:06:17;;;;;;;;;;;23.00;69.40;;;;;;5074880;28;20399;-67
2023/09/10 08:08:42;;;;;;;;;;;23.00;69.40;;;;;;5074827;28;19927;-67
2023/09/10 08:11:08;;;;;;;;;;;22.90;69.30;;;;;;5092823;28;19920;-67
2023/09/10 08:13:33;;;;;;;;;;;22.90;69.40;;;;;;5075038;28;20215;-67
2023/09/10 08:15:59;;;;;;;;;;;23.00;69.40;;;;;;5058039;28;20375;-67
2023/09/10 08:18:24;;;;;;;;;;;23.00;69.40;;;;;;5092913;28;19930;-67
2023/09/10 08:20:50;;;;;;;;;;;23.00;69.40;;;;;;5074015;28;19928;-67
2023/09/10 08:23:15;;;;;;;;;;;22.90;69.30;;;;;;5092494;28;19931;-67
2023/09/10 08:25:41;;;;;;;;;;;23.00;69.40;;;;;;5074863;28;19924;-67
2023/09/10 08:28:06;;;;;;;;;;;23.00;69.40;;;;;;5074744;28;19950;-67
2023/09/10 08:30:32;;;;;;;;;;;23.00;69.50;;;;;;5074757;28;20302;-67
2023/09/10 08:32:57;;;;;;;;;;;23.00;69.40;;;;;;5074827;28;19972;-67
2023/09/10 08:35:23;;;;;;;;;;;23.00;69.40;;;;;;5074703;28;19998;-67
2023/09/10 08:37:49;;;;;;;;;;;23.00;69.40;;;;;;5074714;28;19920;-67
2023/09/10 08:40:15;;;;;;;;;;;23.00;69.40;;;;;;5074634;28;20058;-67
2023/09/10 08:43:00;;;;;;;;;;;23.00;69.40;;;;;;5074329;28;20010;-67
2023/09/10 08:45:26;;;;;;;;;;;23.00;69.40;;;;;;5074064;28;19924;-67
2023/09/10 08:47:53;;;;;;;;;;;23.00;69.40;;;;;;5092420;28;20294;-67
2023/09/10 08:50:19;;;;;;;;;;;23.00;69.40;;;;;;5074472;28;19927;-67
2023/09/10 08:52:45;;;;;;;;;;;23.10;69.50;;;;;;5092898;28;19920;-67
2023/09/10 08:55:11;;;;;;;;;;;23.10;69.50;;;;;;5074458;28;19927;-67
2023/09/10 08:57:38;;;;;;;;;;;23.10;69.50;;;;;;5074575;28;20272;-67
2023/09/10 09:00:07;;;;;;;;;;;23.10;69.50;;;;;;5075925;28;19974;-66
2023/09/10 09:02:32;;;;;;;;;;;23.10;69.50;;;;;;5078575;28;20036;-67
2023/09/10 09:04:58;;;;;;;;;;;23.10;69.50;;;;;;5078222;28;20451;-67
2023/09/10 09:07:26;;;;;;;;;;;23.10;69.60;;;;;;5095100;28;20015;-67
2023/09/10 09:09:53;;;;;;;;;;;23.10;69.70;;;;;;5095222;28;19920;-67
2023/09/10 09:12:19;;;;;;;;;;;23.10;69.90;;;;;;5078134;28;20075;-67
2023/09/10 09:14:46;;;;;;;;;;;23.00;69.60;;;;;;5095329;28;20019;-66
2023/09/10 09:17:12;;;;;;;;;;;23.10;69.50;;;;;;5078339;28;20031;-67
2023/09/10 09:19:39;;;;;;;;;;;23.10;69.40;;;;;;5096362;28;19920;-67
2023/09/10 09:22:06;;;;;;;;;;;23.10;69.50;;;;;;5096105;28;19920;-67
2023/09/10 09:24:33;;;;;;;;;;;23.10;69.40;;;;;;5078033;28;19947;-66
2023/09/10 09:26:59;;;;;;;;;;;23.10;69.40;;;;;;5095046;28;19924;-66
2023/09/10 09:29:25;;;;;;;;;;;23.10;69.50;;;;;;5094803;28;19924;-67
2023/09/10 09:31:50;;;;;;;;;;;23.10;69.50;;;;;;5078039;28;19968;-66
2023/09/10 09:34:17;;;;;;;;;;;23.10;69.50;;;;;;5094955;28;19932;-66
2023/09/10 09:36:42;;;;;;;;;;;23.10;69.50;;;;;;5077681;28;19920;-67
2023/09/10 09:39:08;;;;;;;;;;;23.10;69.60;;;;;;5078020;28;20512;-67
2023/09/10 09:41:35;;;;;;;;;;;23.20;69.60;;;;;;5077479;28;20061;-67
2023/09/10 09:44:01;;;;;;;;;;;23.10;69.60;;;;;;5077340;28;20068;-67
2023/09/10 09:46:30;;;;;;;;;;;23.10;69.50;;;;;;5095558;28;19965;-66
2023/09/10 09:48:56;;;;;;;;;;;23.10;69.50;;;;;;5094695;28;20006;-66
2023/09/10 09:51:21;;;;;;;;;;;23.10;69.50;;;;;;5095577;28;19974;-66
2023/09/10 09:53:47;;;;;;;;;;;23.20;69.50;;;;;;5077426;28;20319;-67
2023/09/10 09:56:16;;;;;;;;;;;23.20;69.40;;;;;;5095967;28;19974;-67
2023/09/10 09:58:44;;;;;;;;;;;23.20;69.40;;;;;;5077794;28;20331;-67
2023/09/10 10:01:09;;;;;;;;;;;23.20;69.30;;;;;;5077357;28;19973;-67
2023/09/10 10:03:35;;;;;;;;;;;23.20;69.30;;;;;;5077229;28;19924;-67
2023/09/10 10:06:01;;;;;;;;;;;23.20;69.30;;;;;;5077487;28;19920;-67
2023/09/10 10:08:28;;;;;;;;;;;23.20;69.20;;;;;;5077405;28;20390;-67
2023/09/10 10:10:54;;;;;;;;;;;23.20;69.20;;;;;;5076452;28;19924;-67
2023/09/10 10:13:21;;;;;;;;;;;23.20;69.20;;;;;;5077093;28;19927;-67
2023/09/10 10:15:48;;;;;;;;;;;23.20;69.20;;;;;;5077075;28;19920;-67
2023/09/10 10:18:14;;;;;;;;;;;23.20;69.20;;;;;;5077295;28;20010;-67
2023/09/10 10:20:40;;;;;;;;;;;23.30;69.20;;;;;;5076963;28;19931;-67
2023/09/10 10:23:06;;;;;;;;;;;23.20;69.10;;;;;;5076745;28;19927;-67
2023/09/10 10:25:32;;;;;;;;;;;23.30;69.20;;;;;;5094872;28;19928;-66
2023/09/10 10:27:58;;;;;;;;;;;23.30;69.20;;;;;;5094868;28;20283;-67
2023/09/10 10:30:25;;;;;;;;;;;23.30;69.10;;;;;;5076741;28;19978;-67
2023/09/10 10:32:51;;;;;;;;;;;23.30;69.10;;;;;;5076945;28;19923;-67
2023/09/10 10:35:17;;;;;;;;;;;23.30;69.10;;;;;;5076723;28;20015;-67
2023/09/10 10:37:58;;;;;;;;;;;23.30;69.10;;;;;;5076479;28;20319;-66
2023/09/10 10:43:26;;;;;;;;;;;23.30;69.10;;;;;;5110165;27;19945;-66
2023/09/10 10:45:52;;;;;;;;;;;23.30;69.10;;;;;;5108799;28;19920;-66
2023/09/10 10:48:19;;;;;;;;;;;23.30;69.10;;;;;;5109043;28;19924;-66
2023/09/10 10:50:45;;;;;;;;;;;23.30;69.10;;;;;;5108781;28;19920;-67
2023/09/10 10:53:15;;;;;;;;;;;23.30;69.10;;;;;;5108810;28;19921;-67
2023/09/10 10:55:41;;;;;;;;;;;23.30;69.10;;;;;;5109154;28;20367;-66
2023/09/10 10:58:07;;;;;;;;;;;23.30;69.10;;;;;;5108786;28;19920;-66
2023/09/10 11:00:32;;;;;;;;;;;23.30;69.20;;;;;;5108579;28;19958;-67
2023/09/10 11:03:14;;;;;;;;;;;23.30;69.30;;;;;;5108542;28;19935;-67
2023/09/10 11:08:45;;;;;;;;;;;23.30;69.30;;;;;;5110350;27;19912;-66
2023/09/10 11:11:30;;;;;;;;;;;23.30;69.30;;;;;;5108974;28;19946;-66
2023/09/10 11:13:58;;;;;;;;;;;23.30;69.30;;;;;;5109999;28;19973;-66
2023/09/10 11:16:23;;;;;;;;;;;23.30;69.30;;;;;;5109212;28;19920;-67
2023/09/10 11:18:49;;;;;;;;;;;23.30;69.30;;;;;;5110264;28;20019;-67
2023/09/10 11:21:16;;;;;;;;;;;23.30;69.40;;;;;;5109034;28;19927;-67
2023/09/10 11:24:01;;;;;;;;;;;23.30;69.40;;;;;;5108758;28;19934;-67
2023/09/10 11:29:08;;;;;;;;;;;23.30;69.40;;;;;;5105619;27;19912;-67
2023/09/10 11:37:02;;;;;;;;;;;23.30;69.50;;;;;;5110175;27;19912;-67
2023/09/10 11:39:28;;;;;;;;;;;23.30;69.60;;;;;;5110410;28;19924;-66
2023/09/10 11:41:54;;;;;;;;;;;23.30;69.60;;;;;;5143524;27;19942;-67
2023/09/10 11:44:20;;;;;;;;;;;23.30;69.70;;;;;;5108880;28;19977;-67
2023/09/10 11:46:45;;;;;;;;;;;23.30;69.60;;;;;;5108848;28;19920;-66
2023/09/10 11:49:11;;;;;;;;;;;23.30;69.60;;;;;;5109082;28;19924;-66
2023/09/10 11:51:40;;;;;;;;;;;23.30;69.80;;;;;;5108910;28;19926;-67
2023/09/10 11:54:06;;;;;;;;;;;23.30;69.60;;;;;;5108734;28;20458;-67
2023/09/10 11:56:33;;;;;;;;;;;23.30;69.60;;;;;;5109958;28;19924;-67
2023/09/10 11:58:58;;;;;;;;;;;23.40;69.90;;;;;;5109993;28;19924;-66
2023/09/10 12:01:24;;;;;;;;;;;23.40;69.80;;;;;;5108784;28;19920;-67
2023/09/10 12:03:49;;;;;;;;;;;23.40;69.80;;;;;;5108465;28;19927;-66
2023/09/10 12:06:15;;;;;;;;;;;23.30;69.70;;;;;;5108334;28;19920;-67
2023/09/10 12:08:40;;;;;;;;;;;23.40;69.80;;;;;;5108734;28;19971;-66
2023/09/10 12:11:08;;;;;;;;;;;23.40;70.00;;;;;;5108344;28;19920;-67
2023/09/10 12:13:35;;;;;;;;;;;23.40;70.00;;;;;;5109760;28;20010;-67
2023/09/10 12:16:01;;;;;;;;;;;23.40;70.00;;;;;;5109534;28;19974;-67
2023/09/10 12:18:27;;;;;;;;;;;23.40;70.10;;;;;;5108246;28;19920;-67
2023/09/10 12:20:52;;;;;;;;;;;23.40;70.00;;;;;;5107740;28;20011;-67
2023/09/10 12:23:18;;;;;;;;;;;23.30;70.00;;;;;;5108032;28;20023;-66
2023/09/10 12:25:43;;;;;;;;;;;23.40;70.00;;;;;;5108379;28;20335;-66
2023/09/10 12:28:09;;;;;;;;;;;23.40;70.10;;;;;;5108313;28;19927;-67
2023/09/10 12:30:37;;;;;;;;;;;23.40;70.00;;;;;;5108329;28;20438;-67
2023/09/10 12:33:02;;;;;;;;;;;23.40;70.10;;;;;;5109163;28;19920;-66
2023/09/10 12:35:28;;;;;;;;;;;23.40;70.10;;;;;;5107756;28;20537;-67
2023/09/10 12:37:54;;;;;;;;;;;23.40;70.10;;;;;;5108978;28;19920;-67
2023/09/10 12:40:20;;;;;;;;;;;23.40;70.10;;;;;;5108333;28;20057;-66
2023/09/10 12:42:46;;;;;;;;;;;23.40;70.10;;;;;;5107977;28;19959;-67
2023/09/10 12:45:12;;;;;;;;;;;23.40;70.20;;;;;;5108056;28;19920;-67
2023/09/10 12:47:38;;;;;;;;;;;23.40;70.20;;;;;;5097588;28;19943;-66
2023/09/10 12:50:04;;;;;;;;;;;23.40;70.20;;;;;;5095413;28;19920;-67
2023/09/10 12:52:30;;;;;;;;;;;23.40;70.30;;;;;;5095196;28;19927;-67
2023/09/10 12:54:55;;;;;;;;;;;23.40;70.30;;;;;;5094171;28;19930;-67
2023/09/10 12:57:21;;;;;;;;;;;23.50;70.40;;;;;;5095061;28;20309;-67
2023/09/10 12:59:51;;;;;;;;;;;23.50;70.40;;;;;;5093898;28;20033;-66
2023/09/10 13:02:17;;;;;;;;;;;23.50;70.40;;;;;;5093876;28;19920;-66
2023/09/10 13:04:42;;;;;;;;;;;23.50;70.50;;;;;;5095075;28;19997;-66
2023/09/10 13:07:12;;;;;;;;;;;23.50;70.50;;;;;;5095057;28;20250;-67
2023/09/10 13:09:37;;;;;;;;;;;23.50;70.50;;;;;;5093907;28;19924;-67
2023/09/10 13:12:03;;;;;;;;;;;23.50;70.50;;;;;;5093690;28;20272;-66
2023/09/10 13:14:28;;;;;;;;;;;23.50;70.60;;;;;;5094887;28;19924;-67
2023/09/10 13:16:56;;;;;;;;;;;23.50;70.60;;;;;;5093569;28;19921;-67
2023/09/10 13:19:22;;;;;;;;;;;23.50;70.60;;;;;;5093787;28;19920;-67
2023/09/10 13:21:47;;;;;;;;;;;23.50;70.60;;;;;;5093479;28;19927;-67
2023/09/10 13:24:13;;;;;;;;;;;23.50;70.60;;;;;;5094594;28;19924;-67
2023/09/10 13:26:38;;;;;;;;;;;23.50;70.60;;;;;;5092985;28;19946;-67
2023/09/10 13:29:04;;;;;;;;;;;23.50;70.60;;;;;;5094581;28;20119;-67
2023/09/10 13:31:29;;;;;;;;;;;23.50;70.70;;;;;;5093588;28;19969;-67
2023/09/10 13:33:55;;;;;;;;;;;23.50;70.70;;;;;;5093686;28;20014;-66
2023/09/10 13:36:20;;;;;;;;;;;23.50;70.80;;;;;;5092989;28;20321;-67
2023/09/10 13:38:47;;;;;;;;;;;23.50;70.70;;;;;;5092940;28;19920;-68
2023/09/10 13:41:13;;;;;;;;;;;23.50;70.70;;;;;;5093412;28;19932;-67
2023/09/10 13:43:38;;;;;;;;;;;23.50;70.70;;;;;;5093345;28;20019;-67
2023/09/10 13:46:04;;;;;;;;;;;23.50;70.80;;;;;;5094384;28;20341;-67
2023/09/10 13:48:30;;;;;;;;;;;23.50;70.80;;;;;;5093051;28;19931;-66
2023/09/10 13:50:55;;;;;;;;;;;23.50;70.80;;;;;;5093158;28;19921;-66
2023/09/10 13:53:23;;;;;;;;;;;23.50;70.80;;;;;;5093129;28;19920;-67
2023/09/10 13:55:48;;;;;;;;;;;23.50;70.90;;;;;;5092818;28;19928;-67
2023/09/10 13:58:14;;;;;;;;;;;23.60;71.00;;;;;;5093262;28;20294;-67
2023/09/10 14:00:39;;;;;;;;;;;23.50;70.80;;;;;;5093826;28;19927;-67
2023/09/10 14:03:04;;;;;;;;;;;23.60;70.90;;;;;;5092941;28;20355;-67
2023/09/10 14:05:30;;;;;;;;;;;23.60;71.00;;;;;;5093830;28;20394;-67
2023/09/10 14:07:55;;;;;;;;;;;23.50;70.90;;;;;;5092597;28;19924;-67
2023/09/10 14:10:21;;;;;;;;;;;23.60;70.90;;;;;;5093622;28;19920;-66
2023/09/10 14:12:47;;;;;;;;;;;23.60;71.00;;;;;;5092765;28;19934;-67
2023/09/10 14:15:12;;;;;;;;;;;23.60;71.00;;;;;;5092237;28;19935;-67
2023/09/10 14:17:38;;;;;;;;;;;23.60;71.00;;;;;;5093666;28;19974;-69
2023/09/10 14:20:03;;;;;;;;;;;23.60;71.00;;;;;;5093597;28;20018;-67
2023/09/10 14:22:29;;;;;;;;;;;23.60;71.00;;;;;;5092473;28;19970;-67
2023/09/10 14:24:54;;;;;;;;;;;23.60;71.10;;;;;;5092575;28;19920;-67